sensor_id;sensor_type;location;lat;lon;timestamp;P1;durP1;ratioP1;P2;durP2;ratioP2
23015;SDS011;11674;52.428;13.584;2023-02-27T00:03:52;3.40;;;2.00;;
23015;SDS011;11674;52.428;13.584;2023-02-27T00:08:59;7.57;;;2.10;;
23015;SDS011;11674;52.428;13.584;2023-02-27T00:14:06;3.45;;;2.00;;
23015;SDS011;11674;52.428;13.584;2023-02-27T00:19:13;6.53;;;2.85;;
23015;SDS011;11674;52.428;13.584;2023-02-27T00:24:20;9.43;;;2.70;;
23015;SDS011;11674;52.428;13.584;2023-02-27T00:29:27;5.65;;;2.75;;
23015;SDS011;11674;52.428;13.584;2023-02-27T00:34:34;7.88;;;2.90;;
23015;SDS011;11674;52.428;13.584;2023-02-27T00:39:43;6.20;;;2.88;;
23015;SDS011;11674;52.428;13.584;2023-02-27T00:44:50;4.97;;;2.40;;
23015;SDS011;11674;52.428;13.584;2023-02-27T00:49:58;5.57;;;2.70;;
23015;SDS011;11674;52.428;13.584;2023-02-27T00:55:04;7.55;;;2.95;;
23015;SDS011;11674;52.428;13.584;2023-02-27T01:00:12;3.85;;;2.33;;
23015;SDS011;11674;52.428;13.584;2023-02-27T01:05:21;3.95;;;2.03;;
23015;SDS011;11674;52.428;13.584;2023-02-27T01:10:28;3.63;;;2.10;;
23015;SDS011;11674;52.428;13.584;2023-02-27T01:15:35;7.30;;;2.55;;
23015;SDS011;11674;52.428;13.584;2023-02-27T01:20:42;6.63;;;2.72;;
23015;SDS011;11674;52.428;13.584;2023-02-27T01:25:49;5.63;;;2.17;;
23015;SDS011;11674;52.428;13.584;2023-02-27T01:30:56;5.80;;;2.58;;
23015;SDS011;11674;52.428;13.584;2023-02-27T01:36:05;3.35;;;2.17;;
23015;SDS011;11674;52.428;13.584;2023-02-27T01:41:12;5.03;;;2.40;;
23015;SDS011;11674;52.428;13.584;2023-02-27T01:46:19;6.60;;;2.72;;
23015;SDS011;11674;52.428;13.584;2023-02-27T01:51:29;4.15;;;2.10;;
23015;SDS011;11674;52.428;13.584;2023-02-27T01:56:38;6.80;;;2.13;;
23015;SDS011;11674;52.428;13.584;2023-02-27T02:01:46;6.25;;;2.67;;
23015;SDS011;11674;52.428;13.584;2023-02-27T02:07:09;4.47;;;2.20;;
23015;SDS011;11674;52.428;13.584;2023-02-27T02:12:20;4.25;;;2.30;;
23015;SDS011;11674;52.428;13.584;2023-02-27T02:50:29;6.22;;;3.30;;
23015;SDS011;11674;52.428;13.584;2023-02-27T03:06:10;6.28;;;3.10;;
23015;SDS011;11674;52.428;13.584;2023-02-27T03:11:23;6.03;;;3.38;;
23015;SDS011;11674;52.428;13.584;2023-02-27T03:16:39;7.63;;;3.08;;
23015;SDS011;11674;52.428;13.584;2023-02-27T03:27:11;5.53;;;3.00;;
23015;SDS011;11674;52.428;13.584;2023-02-27T03:32:35;5.60;;;2.70;;
23015;SDS011;11674;52.428;13.584;2023-02-27T03:43:21;4.43;;;2.67;;
23015;SDS011;11674;52.428;13.584;2023-02-27T03:48:38;11.35;;;3.03;;
23015;SDS011;11674;52.428;13.584;2023-02-27T03:59:01;4.43;;;2.67;;
23015;SDS011;11674;52.428;13.584;2023-02-27T04:04:13;4.33;;;2.57;;
23015;SDS011;11674;52.428;13.584;2023-02-27T04:10:02;3.20;;;2.28;;
23015;SDS011;11674;52.428;13.584;2023-02-27T04:20:55;9.75;;;2.33;;
23015;SDS011;11674;52.428;13.584;2023-02-27T04:26:15;6.00;;;2.30;;
23015;SDS011;11674;52.428;13.584;2023-02-27T04:37:04;7.03;;;2.53;;
23015;SDS011;11674;52.428;13.584;2023-02-27T04:42:19;4.80;;;2.10;;
23015;SDS011;11674;52.428;13.584;2023-02-27T04:47:31;4.45;;;2.20;;
23015;SDS011;11674;52.428;13.584;2023-02-27T04:52:48;5.50;;;2.13;;
23015;SDS011;11674;52.428;13.584;2023-02-27T04:58:10;6.70;;;2.40;;
23015;SDS011;11674;52.428;13.584;2023-02-27T05:03:24;4.18;;;2.20;;
23015;SDS011;11674;52.428;13.584;2023-02-27T05:08:38;6.38;;;2.25;;
23015;SDS011;11674;52.428;13.584;2023-02-27T05:13:48;6.35;;;2.30;;
23015;SDS011;11674;52.428;13.584;2023-02-27T05:19:00;3.60;;;1.90;;
23015;SDS011;11674;52.428;13.584;2023-02-27T05:34:43;8.13;;;2.45;;
23015;SDS011;11674;52.428;13.584;2023-02-27T05:40:04;4.95;;;2.38;;
23015;SDS011;11674;52.428;13.584;2023-02-27T05:50:31;6.63;;;2.15;;
23015;SDS011;11674;52.428;13.584;2023-02-27T05:55:43;5.47;;;2.58;;
23015;SDS011;11674;52.428;13.584;2023-02-27T06:00:57;5.68;;;3.00;;
23015;SDS011;11674;52.428;13.584;2023-02-27T06:06:07;5.80;;;2.33;;
23015;SDS011;11674;52.428;13.584;2023-02-27T06:11:18;4.13;;;2.45;;
23015;SDS011;11674;52.428;13.584;2023-02-27T06:16:25;3.60;;;2.42;;
23015;SDS011;11674;52.428;13.584;2023-02-27T06:21:32;10.85;;;2.75;;
23015;SDS011;11674;52.428;13.584;2023-02-27T06:26:46;6.32;;;2.90;;
23015;SDS011;11674;52.428;13.584;2023-02-27T06:31:53;6.15;;;2.75;;
23015;SDS011;11674;52.428;13.584;2023-02-27T06:37:00;5.53;;;2.58;;
23015;SDS011;11674;52.428;13.584;2023-02-27T06:42:07;7.18;;;2.45;;
23015;SDS011;11674;52.428;13.584;2023-02-27T06:47:14;5.80;;;2.80;;
23015;SDS011;11674;52.428;13.584;2023-02-27T06:52:21;10.45;;;2.90;;
23015;SDS011;11674;52.428;13.584;2023-02-27T06:57:28;4.93;;;2.50;;
23015;SDS011;11674;52.428;13.584;2023-02-27T07:02:35;5.97;;;2.60;;
23015;SDS011;11674;52.428;13.584;2023-02-27T07:07:42;13.10;;;3.00;;
23015;SDS011;11674;52.428;13.584;2023-02-27T07:12:49;5.93;;;2.92;;
23015;SDS011;11674;52.428;13.584;2023-02-27T07:17:56;8.85;;;3.22;;
23015;SDS011;11674;52.428;13.584;2023-02-27T07:23:03;8.40;;;2.90;;
23015;SDS011;11674;52.428;13.584;2023-02-27T07:28:10;10.63;;;3.63;;
23015;SDS011;11674;52.428;13.584;2023-02-27T07:33:17;6.80;;;3.53;;
23015;SDS011;11674;52.428;13.584;2023-02-27T07:38:24;6.45;;;3.03;;
23015;SDS011;11674;52.428;13.584;2023-02-27T07:43:31;10.27;;;3.97;;
23015;SDS011;11674;52.428;13.584;2023-02-27T07:48:38;6.35;;;3.45;;
23015;SDS011;11674;52.428;13.584;2023-02-27T07:53:45;9.15;;;4.35;;
23015;SDS011;11674;52.428;13.584;2023-02-27T07:58:52;15.40;;;3.83;;
23015;SDS011;11674;52.428;13.584;2023-02-27T08:03:59;9.32;;;3.70;;
23015;SDS011;11674;52.428;13.584;2023-02-27T08:09:06;9.45;;;3.67;;
23015;SDS011;11674;52.428;13.584;2023-02-27T08:14:13;5.55;;;3.38;;
23015;SDS011;11674;52.428;13.584;2023-02-27T08:19:20;6.13;;;3.10;;
23015;SDS011;11674;52.428;13.584;2023-02-27T08:24:28;10.45;;;3.00;;
23015;SDS011;11674;52.428;13.584;2023-02-27T08:29:34;10.27;;;3.67;;
23015;SDS011;11674;52.428;13.584;2023-02-27T08:34:41;7.25;;;3.70;;
23015;SDS011;11674;52.428;13.584;2023-02-27T08:39:48;7.70;;;3.47;;
23015;SDS011;11674;52.428;13.584;2023-02-27T08:44:55;7.60;;;3.42;;
23015;SDS011;11674;52.428;13.584;2023-02-27T08:50:03;6.38;;;2.92;;
23015;SDS011;11674;52.428;13.584;2023-02-27T08:55:10;6.68;;;3.78;;
23015;SDS011;11674;52.428;13.584;2023-02-27T09:00:18;6.18;;;3.22;;
23015;SDS011;11674;52.428;13.584;2023-02-27T09:05:24;8.07;;;3.33;;
23015;SDS011;11674;52.428;13.584;2023-02-27T09:10:32;6.95;;;2.97;;
23015;SDS011;11674;52.428;13.584;2023-02-27T09:15:38;4.90;;;2.67;;
23015;SDS011;11674;52.428;13.584;2023-02-27T09:20:47;7.20;;;2.65;;
23015;SDS011;11674;52.428;13.584;2023-02-27T09:25:55;5.30;;;2.75;;
23015;SDS011;11674;52.428;13.584;2023-02-27T09:31:02;6.95;;;2.55;;
23015;SDS011;11674;52.428;13.584;2023-02-27T09:36:11;4.13;;;2.15;;
23015;SDS011;11674;52.428;13.584;2023-02-27T09:46:54;5.95;;;2.38;;
23015;SDS011;11674;52.428;13.584;2023-02-27T09:52:01;4.60;;;2.33;;
23015;SDS011;11674;52.428;13.584;2023-02-27T09:57:11;5.50;;;2.10;;
23015;SDS011;11674;52.428;13.584;2023-02-27T10:08:22;3.10;;;1.75;;
23015;SDS011;11674;52.428;13.584;2023-02-27T10:19:33;4.20;;;2.03;;
23015;SDS011;11674;52.428;13.584;2023-02-27T10:24:48;3.08;;;1.77;;
23015;SDS011;11674;52.428;13.584;2023-02-27T10:30:20;4.97;;;1.55;;
23015;SDS011;11674;52.428;13.584;2023-02-27T10:35:36;1.77;;;1.45;;
23015;SDS011;11674;52.428;13.584;2023-02-27T10:40:44;3.35;;;1.65;;
23015;SDS011;11674;52.428;13.584;2023-02-27T10:45:52;2.60;;;1.65;;
23015;SDS011;11674;52.428;13.584;2023-02-27T10:56:43;5.18;;;1.50;;
23015;SDS011;11674;52.428;13.584;2023-02-27T11:01:56;2.15;;;1.20;;
23015;SDS011;11674;52.428;13.584;2023-02-27T11:07:07;2.03;;;1.05;;
23015;SDS011;11674;52.428;13.584;2023-02-27T11:12:21;1.85;;;0.98;;
23015;SDS011;11674;52.428;13.584;2023-02-27T11:17:32;3.00;;;1.40;;
23015;SDS011;11674;52.428;13.584;2023-02-27T11:22:40;2.97;;;1.05;;
23015;SDS011;11674;52.428;13.584;2023-02-27T11:27:47;1.02;;;0.82;;
23015;SDS011;11674;52.428;13.584;2023-02-27T11:32:55;1.60;;;0.90;;
23015;SDS011;11674;52.428;13.584;2023-02-27T11:38:15;0.85;;;0.63;;
23015;SDS011;11674;52.428;13.584;2023-02-27T11:43:35;0.80;;;0.65;;
23015;SDS011;11674;52.428;13.584;2023-02-27T11:48:54;1.55;;;0.73;;
23015;SDS011;11674;52.428;13.584;2023-02-27T11:59:49;1.63;;;0.60;;
23015;SDS011;11674;52.428;13.584;2023-02-27T12:10:15;2.25;;;1.23;;
23015;SDS011;11674;52.428;13.584;2023-02-27T12:36:40;2.92;;;0.98;;
23015;SDS011;11674;52.428;13.584;2023-02-27T12:57:41;3.08;;;0.77;;
23015;SDS011;11674;52.428;13.584;2023-02-27T13:03:03;5.45;;;2.63;;
23015;SDS011;11674;52.428;13.584;2023-02-27T13:24:17;0.82;;;0.70;;
23015;SDS011;11674;52.428;13.584;2023-02-27T13:29:32;0.70;;;0.70;;
23015;SDS011;11674;52.428;13.584;2023-02-27T13:34:48;1.13;;;0.73;;
23015;SDS011;11674;52.428;13.584;2023-02-27T13:40:27;4.43;;;0.85;;
23015;SDS011;11674;52.428;13.584;2023-02-27T13:45:53;2.30;;;0.63;;
23015;SDS011;11674;52.428;13.584;2023-02-27T13:51:06;1.83;;;0.68;;
23015;SDS011;11674;52.428;13.584;2023-02-27T13:56:20;0.98;;;0.65;;
23015;SDS011;11674;52.428;13.584;2023-02-27T14:01:29;2.50;;;0.70;;
23015;SDS011;11674;52.428;13.584;2023-02-27T14:06:41;1.85;;;1.00;;
23015;SDS011;11674;52.428;13.584;2023-02-27T14:11:52;6.15;;;1.50;;
23015;SDS011;11674;52.428;13.584;2023-02-27T14:17:01;4.60;;;1.52;;
23015;SDS011;11674;52.428;13.584;2023-02-27T14:27:20;2.63;;;0.77;;
23015;SDS011;11674;52.428;13.584;2023-02-27T14:32:34;2.40;;;0.60;;
23015;SDS011;11674;52.428;13.584;2023-02-27T14:37:43;2.00;;;0.80;;
23015;SDS011;11674;52.428;13.584;2023-02-27T14:43:51;2.00;;;0.90;;
23015;SDS011;11674;52.428;13.584;2023-02-27T14:48:33;0.75;;;0.57;;
23015;SDS011;11674;52.428;13.584;2023-02-27T14:53:40;2.30;;;0.77;;
23015;SDS011;11674;52.428;13.584;2023-02-27T14:58:47;3.85;;;0.70;;
23015;SDS011;11674;52.428;13.584;2023-02-27T15:03:56;2.60;;;0.90;;
23015;SDS011;11674;52.428;13.584;2023-02-27T15:09:04;1.10;;;0.70;;
23015;SDS011;11674;52.428;13.584;2023-02-27T15:14:19;1.92;;;0.90;;
23015;SDS011;11674;52.428;13.584;2023-02-27T15:19:29;1.25;;;1.02;;
23015;SDS011;11674;52.428;13.584;2023-02-27T15:24:37;2.90;;;1.95;;
23015;SDS011;11674;52.428;13.584;2023-02-27T15:29:47;2.22;;;1.27;;
23015;SDS011;11674;52.428;13.584;2023-02-27T15:35:12;3.50;;;1.10;;
23015;SDS011;11674;52.428;13.584;2023-02-27T15:40:26;1.20;;;0.88;;
23015;SDS011;11674;52.428;13.584;2023-02-27T15:45:36;2.13;;;0.95;;
23015;SDS011;11674;52.428;13.584;2023-02-27T15:50:45;2.83;;;1.00;;
23015;SDS011;11674;52.428;13.584;2023-02-27T15:55:59;5.07;;;1.33;;
23015;SDS011;11674;52.428;13.584;2023-02-27T16:01:14;1.08;;;0.98;;
23015;SDS011;11674;52.428;13.584;2023-02-27T16:06:24;2.90;;;1.08;;
23015;SDS011;11674;52.428;13.584;2023-02-27T16:11:34;2.58;;;1.08;;
23015;SDS011;11674;52.428;13.584;2023-02-27T16:16:51;3.08;;;1.60;;
23015;SDS011;11674;52.428;13.584;2023-02-27T16:32:34;8.73;;;1.80;;
23015;SDS011;11674;52.428;13.584;2023-02-27T16:37:46;5.25;;;1.85;;
23015;SDS011;11674;52.428;13.584;2023-02-27T16:42:54;7.00;;;1.92;;
23015;SDS011;11674;52.428;13.584;2023-02-27T16:48:02;4.70;;;2.50;;
23015;SDS011;11674;52.428;13.584;2023-02-27T16:53:10;8.20;;;3.20;;
23015;SDS011;11674;52.428;13.584;2023-02-27T16:58:17;13.10;;;4.20;;
23015;SDS011;11674;52.428;13.584;2023-02-27T17:03:31;9.02;;;4.03;;
23015;SDS011;11674;52.428;13.584;2023-02-27T17:08:38;6.75;;;3.45;;
23015;SDS011;11674;52.428;13.584;2023-02-27T17:13:47;4.63;;;2.50;;
23015;SDS011;11674;52.428;13.584;2023-02-27T17:18:54;13.05;;;3.17;;
23015;SDS011;11674;52.428;13.584;2023-02-27T17:24:01;7.00;;;3.00;;
23015;SDS011;11674;52.428;13.584;2023-02-27T17:29:08;7.47;;;3.30;;
23015;SDS011;11674;52.428;13.584;2023-02-27T17:34:15;8.57;;;5.18;;
23015;SDS011;11674;52.428;13.584;2023-02-27T17:39:22;14.23;;;6.55;;
23015;SDS011;11674;52.428;13.584;2023-02-27T17:44:29;11.43;;;5.65;;
23015;SDS011;11674;52.428;13.584;2023-02-27T17:49:36;10.95;;;5.80;;
23015;SDS011;11674;52.428;13.584;2023-02-27T17:54:43;8.13;;;4.63;;
23015;SDS011;11674;52.428;13.584;2023-02-27T17:59:50;13.10;;;6.00;;
23015;SDS011;11674;52.428;13.584;2023-02-27T18:04:57;10.10;;;5.00;;
23015;SDS011;11674;52.428;13.584;2023-02-27T18:10:04;13.38;;;5.13;;
23015;SDS011;11674;52.428;13.584;2023-02-27T18:15:12;14.73;;;5.78;;
23015;SDS011;11674;52.428;13.584;2023-02-27T18:20:19;10.85;;;5.90;;
23015;SDS011;11674;52.428;13.584;2023-02-27T18:25:26;13.70;;;6.72;;
23015;SDS011;11674;52.428;13.584;2023-02-27T18:30:35;18.80;;;8.40;;
23015;SDS011;11674;52.428;13.584;2023-02-27T18:35:44;15.95;;;7.97;;
23015;SDS011;11674;52.428;13.584;2023-02-27T18:40:52;19.08;;;7.03;;
23015;SDS011;11674;52.428;13.584;2023-02-27T18:45:59;12.98;;;6.53;;
23015;SDS011;11674;52.428;13.584;2023-02-27T18:51:07;14.25;;;6.18;;
23015;SDS011;11674;52.428;13.584;2023-02-27T18:56:17;14.30;;;6.20;;
23015;SDS011;11674;52.428;13.584;2023-02-27T19:01:27;16.02;;;6.07;;
23015;SDS011;11674;52.428;13.584;2023-02-27T19:06:37;16.02;;;7.45;;
23015;SDS011;11674;52.428;13.584;2023-02-27T19:11:46;23.63;;;7.45;;
23015;SDS011;11674;52.428;13.584;2023-02-27T19:16:53;21.27;;;7.93;;
23015;SDS011;11674;52.428;13.584;2023-02-27T19:22:00;18.52;;;9.02;;
23015;SDS011;11674;52.428;13.584;2023-02-27T19:27:07;18.65;;;7.80;;
23015;SDS011;11674;52.428;13.584;2023-02-27T19:32:14;17.08;;;7.45;;
23015;SDS011;11674;52.428;13.584;2023-02-27T19:37:21;15.23;;;7.15;;
23015;SDS011;11674;52.428;13.584;2023-02-27T19:42:28;15.45;;;6.43;;
23015;SDS011;11674;52.428;13.584;2023-02-27T19:47:35;11.15;;;5.53;;
23015;SDS011;11674;52.428;13.584;2023-02-27T19:52:42;11.20;;;5.40;;
23015;SDS011;11674;52.428;13.584;2023-02-27T19:57:49;11.20;;;5.47;;
23015;SDS011;11674;52.428;13.584;2023-02-27T20:02:56;13.65;;;6.82;;
23015;SDS011;11674;52.428;13.584;2023-02-27T20:08:03;12.13;;;6.28;;
23015;SDS011;11674;52.428;13.584;2023-02-27T20:13:10;14.02;;;8.13;;
23015;SDS011;11674;52.428;13.584;2023-02-27T20:18:17;15.13;;;7.93;;
23015;SDS011;11674;52.428;13.584;2023-02-27T20:23:31;14.43;;;7.90;;
23015;SDS011;11674;52.428;13.584;2023-02-27T20:28:40;14.82;;;8.25;;
23015;SDS011;11674;52.428;13.584;2023-02-27T20:33:47;18.98;;;10.10;;
23015;SDS011;11674;52.428;13.584;2023-02-27T20:38:55;21.45;;;11.18;;
23015;SDS011;11674;52.428;13.584;2023-02-27T20:44:02;27.23;;;11.05;;
23015;SDS011;11674;52.428;13.584;2023-02-27T20:49:19;15.80;;;7.95;;
23015;SDS011;11674;52.428;13.584;2023-02-27T20:54:27;19.25;;;9.23;;
23015;SDS011;11674;52.428;13.584;2023-02-27T20:59:34;17.08;;;9.50;;
23015;SDS011;11674;52.428;13.584;2023-02-27T21:04:41;14.50;;;7.10;;
23015;SDS011;11674;52.428;13.584;2023-02-27T21:09:51;11.73;;;6.40;;
23015;SDS011;11674;52.428;13.584;2023-02-27T21:14:58;11.75;;;5.63;;
23015;SDS011;11674;52.428;13.584;2023-02-27T21:20:05;11.18;;;5.57;;
23015;SDS011;11674;52.428;13.584;2023-02-27T21:25:13;10.40;;;6.10;;
23015;SDS011;11674;52.428;13.584;2023-02-27T21:30:20;12.30;;;6.30;;
23015;SDS011;11674;52.428;13.584;2023-02-27T21:35:27;11.65;;;6.38;;
23015;SDS011;11674;52.428;13.584;2023-02-27T21:40:34;12.50;;;5.85;;
23015;SDS011;11674;52.428;13.584;2023-02-27T21:45:41;9.98;;;6.18;;
23015;SDS011;11674;52.428;13.584;2023-02-27T21:50:58;13.43;;;6.95;;
23015;SDS011;11674;52.428;13.584;2023-02-27T21:56:07;15.18;;;6.68;;
23015;SDS011;11674;52.428;13.584;2023-02-27T22:01:18;9.95;;;5.18;;
23015;SDS011;11674;52.428;13.584;2023-02-27T22:06:26;10.10;;;4.95;;
23015;SDS011;11674;52.428;13.584;2023-02-27T22:11:36;8.50;;;4.28;;
23015;SDS011;11674;52.428;13.584;2023-02-27T22:16:43;9.48;;;4.20;;
23015;SDS011;11674;52.428;13.584;2023-02-27T22:21:50;7.80;;;4.03;;
23015;SDS011;11674;52.428;13.584;2023-02-27T22:26:57;6.90;;;3.58;;
23015;SDS011;11674;52.428;13.584;2023-02-27T22:32:04;6.03;;;3.28;;
23015;SDS011;11674;52.428;13.584;2023-02-27T22:37:12;8.65;;;3.40;;
23015;SDS011;11674;52.428;13.584;2023-02-27T22:42:19;7.50;;;3.42;;
23015;SDS011;11674;52.428;13.584;2023-02-27T22:47:26;7.15;;;3.17;;
23015;SDS011;11674;52.428;13.584;2023-02-27T22:52:34;5.43;;;3.60;;
23015;SDS011;11674;52.428;13.584;2023-02-27T22:57:41;9.68;;;4.13;;
23015;SDS011;11674;52.428;13.584;2023-02-27T23:02:48;7.03;;;3.50;;
23015;SDS011;11674;52.428;13.584;2023-02-27T23:07:55;7.50;;;3.80;;
23015;SDS011;11674;52.428;13.584;2023-02-27T23:13:02;5.30;;;3.40;;
23015;SDS011;11674;52.428;13.584;2023-02-27T23:18:09;9.27;;;3.80;;
23015;SDS011;11674;52.428;13.584;2023-02-27T23:23:16;8.40;;;3.92;;
23015;SDS011;11674;52.428;13.584;2023-02-27T23:28:23;5.28;;;3.35;;
23015;SDS011;11674;52.428;13.584;2023-02-27T23:33:30;7.97;;;3.40;;
23015;SDS011;11674;52.428;13.584;2023-02-27T23:38:38;8.70;;;3.80;;
23015;SDS011;11674;52.428;13.584;2023-02-27T23:43:45;7.00;;;3.47;;
23015;SDS011;11674;52.428;13.584;2023-02-27T23:48:53;7.47;;;3.67;;
23015;SDS011;11674;52.428;13.584;2023-02-27T23:54:00;7.32;;;4.28;;
23015;SDS011;11674;52.428;13.584;2023-02-27T23:59:07;8.15;;;4.10;;
